Time;durP1;ratioP1;P1;durP2;ratioP2;P2;SDS_P1;SDS_P2;PMS_P1;PMS_P2;Temp;Humidity;BMP_temperature;BMP_pressure;BME280_temperature;BME280_humidity;BME280_pressure;Samples;Min_cycle;Max_cycle;Signal;HPM_P1;HPM_P2
2022/04/10 00:00:47;;;;;;;5.33;3.30;;;;;;;2.81;100.00;98303.72;5075817;28;20239;-63
2022/04/10 00:03:14;;;;;;;5.03;3.00;;;;;;;2.82;100.00;98307.19;5075572;28;20249;-63
2022/04/10 00:05:40;;;;;;;4.93;2.77;;;;;;;2.90;100.00;98311.22;5075957;28;20219;-62
2022/04/10 00:08:07;;;;;;;4.07;3.17;;;;;;;2.85;100.00;98307.06;5075706;28;20223;-62
2022/04/10 00:10:35;;;;;;;3.03;2.60;;;;;;;2.87;100.00;98302.66;5072917;28;20222;-61
2022/04/10 00:13:01;;;;;;;4.60;3.30;;;;;;;2.80;100.00;98299.41;5075505;28;20211;-62
2022/04/10 00:15:28;;;;;;;4.50;2.50;;;;;;;2.84;100.00;98301.00;5074593;28;20211;-63
2022/04/10 00:17:54;;;;;;;3.30;2.80;;;;;;;2.75;100.00;98300.50;5075430;28;20212;-61
2022/04/10 00:20:21;;;;;;;4.77;3.20;;;;;;;2.70;100.00;98303.25;5075911;28;20211;-61
2022/04/10 00:22:49;;;;;;;4.80;2.90;;;;;;;2.60;100.00;98295.78;5075633;28;20592;-62
2022/04/10 00:25:17;;;;;;;5.80;3.20;;;;;;;2.56;100.00;98308.09;5075810;28;20239;-61
2022/04/10 00:27:46;;;;;;;3.07;2.77;;;;;;;2.62;100.00;98310.50;5075648;28;20224;-63
2022/04/10 00:30:15;;;;;;;6.00;3.30;;;;;;;2.54;100.00;98312.53;5072803;28;20212;-63
2022/04/10 00:32:42;;;;;;;5.53;3.50;;;;;;;2.49;100.00;98308.34;5075492;28;20569;-62
2022/04/10 00:35:10;;;;;;;4.63;2.73;;;;;;;2.53;100.00;98300.41;5075478;28;20218;-63
2022/04/10 00:37:38;;;;;;;3.97;3.13;;;;;;;2.48;100.00;98310.13;5075358;28;20215;-62
2022/04/10 00:40:06;;;;;;;5.27;3.13;;;;;;;2.48;100.00;98304.91;5075174;28;20211;-63
2022/04/10 00:42:33;;;;;;;4.23;3.20;;;;;;;2.40;100.00;98300.88;5073655;28;20319;-62
2022/04/10 00:45:01;;;;;;;4.17;2.90;;;;;;;2.38;100.00;98300.91;5075387;28;20223;-62
2022/04/10 00:47:28;;;;;;;3.50;3.20;;;;;;;2.40;100.00;98309.53;5075112;28;20215;-62
2022/04/10 00:49:57;;;;;;;9.90;3.33;;;;;;;2.40;100.00;98306.91;5075055;28;20211;-61
2022/04/10 00:52:25;;;;;;;4.83;3.40;;;;;;;2.44;100.00;98308.53;5074917;28;20681;-62
2022/04/10 00:54:52;;;;;;;4.87;3.40;;;;;;;2.49;100.00;98304.00;5074901;28;20211;-61
2022/04/10 00:57:19;;;;;;;5.20;3.60;;;;;;;2.56;100.00;98304.66;5075048;28;20585;-61
2022/04/10 00:59:46;;;;;;;7.53;3.70;;;;;;;2.60;100.00;98299.28;5073868;28;20219;-62
2022/04/10 01:02:14;;;;;;;5.50;3.83;;;;;;;2.60;100.00;98307.09;5074267;28;20713;-62
2022/04/10 01:04:40;;;;;;;4.57;3.63;;;;;;;2.53;100.00;98310.84;5074446;28;20721;-62
2022/04/10 01:07:07;;;;;;;7.27;3.80;;;;;;;2.50;100.00;98316.13;5074704;28;20215;-63
2022/04/10 01:09:34;;;;;;;5.53;4.00;;;;;;;2.52;100.00;98308.25;5069060;28;20216;-63
2022/04/10 01:12:01;;;;;;;5.53;3.70;;;;;;;2.64;100.00;98313.91;5074430;28;20211;-63
2022/04/10 01:14:28;;;;;;;9.10;3.57;;;;;;;2.74;100.00;98310.06;5074348;28;20669;-62
2022/04/10 01:16:55;;;;;;;4.03;3.63;;;;;;;2.90;100.00;98321.69;5074558;28;20214;-63
2022/04/10 01:19:23;;;;;;;4.87;3.50;;;;;;;3.10;100.00;98313.97;5074499;28;20208;-63
2022/04/10 01:21:53;;;;;;;4.37;3.37;;;;;;;3.33;100.00;98327.03;5074489;28;20211;-61
2022/04/10 01:24:21;;;;;;;5.53;3.10;;;;;;;3.45;100.00;98321.34;5074549;28;20237;-63
2022/04/10 01:26:47;;;;;;;5.37;3.20;;;;;;;3.54;100.00;98331.41;5074341;28;20576;-63
2022/04/10 01:29:14;;;;;;;4.57;2.90;;;;;;;3.63;100.00;98331.09;5074145;28;20300;-63
2022/04/10 01:31:42;;;;;;;5.10;3.20;;;;;;;3.68;100.00;98339.56;5074442;28;20216;-63
2022/04/10 01:34:11;;;;;;;4.87;3.00;;;;;;;3.64;100.00;98345.84;5072662;28;20552;-62
2022/04/10 01:36:38;;;;;;;3.53;2.83;;;;;;;3.63;100.00;98341.53;5074285;28;20284;-62
2022/04/10 01:39:07;;;;;;;3.83;3.00;;;;;;;3.67;100.00;98343.09;5074340;28;20216;-62
2022/04/10 01:41:35;;;;;;;5.27;3.30;;;;;;;3.61;100.00;98343.34;5074003;28;20219;-61
2022/04/10 01:44:03;;;;;;;4.10;3.37;;;;;;;3.59;100.00;98344.31;5073857;28;20240;-62
2022/04/10 01:46:31;;;;;;;5.43;3.27;;;;;;;3.57;100.00;98347.00;5073837;28;20214;-62
2022/04/10 01:48:58;;;;;;;5.90;3.60;;;;;;;3.53;100.00;98348.00;5073946;28;20586;-63
2022/04/10 01:51:26;;;;;;;3.77;3.03;;;;;;;3.38;100.00;98338.16;5073929;28;20235;-63
2022/04/10 01:53:54;;;;;;;3.57;3.03;;;;;;;3.17;100.00;98340.72;5074097;28;20216;-63
2022/04/10 01:56:21;;;;;;;4.07;2.80;;;;;;;3.00;100.00;98338.69;5073851;28;20260;-63
2022/04/10 01:58:52;;;;;;;3.50;3.00;;;;;;;2.95;100.00;98338.00;5073662;28;20221;-63
2022/04/10 02:01:19;;;;;;;4.83;3.20;;;;;;;2.90;100.00;98342.56;5071372;28;20619;-62
2022/04/10 02:03:47;;;;;;;3.47;3.10;;;;;;;2.77;100.00;98340.44;5073679;28;20235;-62
2022/04/10 02:06:15;;;;;;;6.07;3.23;;;;;;;2.74;100.00;98335.28;5073632;28;20225;-63
2022/04/10 02:08:42;;;;;;;5.37;3.77;;;;;;;2.66;100.00;98343.41;5073665;28;20211;-62
2022/04/10 02:11:12;;;;;;;5.80;3.50;;;;;;;2.58;100.00;98344.56;5073651;28;20209;-61
2022/04/10 02:13:39;;;;;;;4.87;3.30;;;;;;;2.52;100.00;98344.78;5073675;28;20222;-61
2022/04/10 02:16:09;;;;;;;5.33;3.60;;;;;;;2.46;100.00;98338.00;5073156;28;20302;-62
2022/04/10 02:18:35;;;;;;;4.57;3.17;;;;;;;2.43;100.00;98340.72;5073307;28;20349;-62
2022/04/10 02:21:02;;;;;;;5.10;3.10;;;;;;;2.39;100.00;98335.69;5073061;28;20677;-62
2022/04/10 02:23:28;;;;;;;4.87;3.23;;;;;;;2.33;100.00;98339.31;5071924;28;20227;-63
2022/04/10 02:25:55;;;;;;;3.83;3.20;;;;;;;2.22;100.00;98333.63;5071131;28;20212;-63
2022/04/10 02:28:22;;;;;;;4.50;3.47;;;;;;;2.15;100.00;98342.53;5073541;28;20222;-62
2022/04/10 02:30:48;;;;;;;8.13;3.60;;;;;;;2.09;100.00;98345.34;5073104;28;20212;-63
2022/04/10 02:33:16;;;;;;;5.20;3.90;;;;;;;2.07;100.00;98341.06;5073382;28;20593;-62
2022/04/10 02:35:43;;;;;;;5.23;3.70;;;;;;;2.06;100.00;98341.97;5073171;28;20207;-62
2022/04/10 02:38:10;;;;;;;5.60;3.80;;;;;;;2.05;100.00;98342.91;5072926;28;20220;-63
2022/04/10 02:40:37;;;;;;;5.87;3.43;;;;;;;2.01;100.00;98344.75;5073280;28;20215;-62
2022/04/10 02:43:03;;;;;;;6.40;4.03;;;;;;;1.99;100.00;98343.94;5073214;28;20297;-63
2022/04/10 02:45:30;;;;;;;4.73;3.80;;;;;;;2.04;100.00;98352.47;5072909;28;20231;-63
2022/04/10 02:47:56;;;;;;;5.10;3.50;;;;;;;2.02;100.00;98354.25;5072944;28;20219;-62
2022/04/10 02:50:24;;;;;;;5.80;3.87;;;;;;;1.99;100.00;98348.31;5072875;28;20218;-63
2022/04/10 02:52:51;;;;;;;5.30;3.90;;;;;;;1.96;100.00;98351.84;5071452;28;20219;-63
2022/04/10 02:55:18;;;;;;;5.33;3.87;;;;;;;1.91;100.00;98355.53;5072627;28;20226;-63
2022/04/10 02:57:44;;;;;;;6.53;3.93;;;;;;;1.85;100.00;98358.31;5073010;28;20215;-62
2022/04/10 03:00:12;;;;;;;6.47;3.90;;;;;;;1.83;100.00;98362.72;5072973;28;20240;-62
2022/04/10 03:02:39;;;;;;;4.83;4.03;;;;;;;1.75;100.00;98355.16;5073076;28;20238;-61
2022/04/10 03:05:06;;;;;;;5.67;4.03;;;;;;;1.67;100.00;98364.94;5072936;28;20703;-61
2022/04/10 03:07:34;;;;;;;5.17;3.47;;;;;;;1.65;100.00;98352.88;5070291;28;20222;-62
2022/04/10 03:10:01;;;;;;;7.57;4.53;;;;;;;1.62;100.00;98359.03;5072965;28;20219;-61
2022/04/10 03:12:27;;;;;;;5.50;4.40;;;;;;;1.59;100.00;98353.91;5073186;28;20211;-62
2022/04/10 03:14:53;;;;;;;6.50;4.60;;;;;;;1.59;100.00;98358.28;5077135;28;20220;-62
2022/04/10 03:17:20;;;;;;;7.37;4.13;;;;;;;1.61;100.00;98354.69;5076728;28;20215;-61
2022/04/10 03:19:47;;;;;;;7.13;4.00;;;;;;;1.55;100.00;98354.91;5075389;28;20220;-62
2022/04/10 03:22:14;;;;;;;7.50;4.73;;;;;;;1.60;100.00;98360.81;5076904;28;20212;-62
2022/04/10 03:24:41;;;;;;;7.57;4.60;;;;;;;1.60;100.00;98365.19;5076752;28;20243;-61
2022/04/10 03:27:08;;;;;;;5.63;4.47;;;;;;;1.62;100.00;98365.97;5076469;28;20242;-61
2022/04/10 03:29:34;;;;;;;7.20;4.97;;;;;;;1.53;100.00;98361.91;5076617;28;20303;-61
2022/04/10 03:32:01;;;;;;;5.93;4.67;;;;;;;1.50;100.00;98369.81;5076525;28;20681;-61
2022/04/10 03:34:27;;;;;;;6.07;4.80;;;;;;;1.38;100.00;98359.75;5076461;28;20218;-61
2022/04/10 03:36:54;;;;;;;6.43;4.90;;;;;;;1.36;100.00;98371.94;5076323;28;20787;-61
2022/04/10 03:39:20;;;;;;;5.23;4.60;;;;;;;1.47;100.00;98377.69;5076351;28;20223;-62
2022/04/10 03:41:48;;;;;;;6.23;4.43;;;;;;;1.41;100.00;98370.06;5076438;28;20208;-63
2022/04/10 03:44:15;;;;;;;7.03;4.87;;;;;;;1.40;100.00;98378.78;5074622;28;20239;-62
2022/04/10 03:46:41;;;;;;;7.43;4.97;;;;;;;1.46;100.00;98373.41;5076597;28;20226;-62
2022/04/10 03:49:08;;;;;;;8.17;4.57;;;;;;;1.53;100.00;98379.28;5076382;28;20213;-62
2022/04/10 03:51:34;;;;;;;8.20;4.80;;;;;;;1.48;100.00;98387.22;5076352;28;20244;-62
2022/04/10 03:54:01;;;;;;;5.97;5.00;;;;;;;1.52;100.00;98388.84;5076290;28;20216;-61
2022/04/10 03:56:27;;;;;;;8.87;4.90;;;;;;;1.59;100.00;98385.16;5073842;28;20216;-61
2022/04/10 03:58:55;;;;;;;5.77;4.77;;;;;;;1.59;100.00;98389.53;5076152;28;20235;-61
2022/04/10 04:01:21;;;;;;;6.40;4.90;;;;;;;1.61;100.00;98392.94;5075995;28;20231;-62
2022/04/10 04:03:48;;;;;;;7.00;5.27;;;;;;;1.64;100.00;98401.50;5076011;28;20607;-61
2022/04/10 04:06:14;;;;;;;6.70;4.90;;;;;;;1.65;100.00;98410.19;5075701;28;20216;-61
2022/04/10 04:08:41;;;;;;;6.60;4.87;;;;;;;1.63;100.00;98412.84;5076090;28;20222;-61
2022/04/10 04:11:07;;;;;;;7.00;4.90;;;;;;;1.68;100.00;98410.94;5074047;28;20732;-61
2022/04/10 04:13:37;;;;;;;6.63;4.80;;;;;;;1.70;100.00;98416.97;5075732;28;20211;-61
2022/04/10 04:16:06;;;;;;;6.17;4.87;;;;;;;1.77;100.00;98421.06;5075809;28;20211;-61
2022/04/10 04:18:33;;;;;;;5.83;4.90;;;;;;;1.81;100.00;98422.69;5075669;28;20222;-61
2022/04/10 04:20:59;;;;;;;6.13;4.63;;;;;;;1.82;100.00;98421.81;5075706;28;20590;-61
2022/04/10 04:23:26;;;;;;;6.40;5.03;;;;;;;1.90;100.00;98432.84;5075073;28;20212;-61
2022/04/10 04:25:53;;;;;;;7.27;5.57;;;;;;;2.06;100.00;98421.06;5075664;28;20295;-61
2022/04/10 04:28:19;;;;;;;7.40;5.03;;;;;;;2.15;100.00;98431.19;5075356;28;20224;-61
2022/04/10 04:30:46;;;;;;;7.73;5.37;;;;;;;2.27;100.00;98422.97;5075509;28;20234;-62
2022/04/10 04:33:16;;;;;;;5.83;5.20;;;;;;;2.39;100.00;98426.97;5075539;28;20581;-62
2022/04/10 04:35:43;;;;;;;7.73;5.30;;;;;;;2.46;100.00;98434.50;5073651;28;20219;-62
2022/04/10 04:38:09;;;;;;;8.13;5.37;;;;;;;2.48;100.00;98437.94;5075346;28;20219;-62
2022/04/10 04:40:36;;;;;;;7.17;5.70;;;;;;;2.55;100.00;98434.22;5075509;28;20211;-62
2022/04/10 04:43:02;;;;;;;6.07;5.40;;;;;;;2.56;100.00;98443.75;5075240;28;20211;-61
2022/04/10 04:45:29;;;;;;;7.43;5.43;;;;;;;2.69;100.00;98450.28;5075175;28;20247;-62
2022/04/10 04:47:56;;;;;;;5.97;5.03;;;;;;;2.72;100.00;98447.59;5074935;28;20214;-61
2022/04/10 04:50:24;;;;;;;6.37;5.17;;;;;;;2.84;100.00;98444.56;5074831;28;20730;-62
2022/04/10 04:52:50;;;;;;;5.80;4.97;;;;;;;2.96;100.00;98456.34;5075086;28;20299;-62
2022/04/10 04:55:17;;;;;;;6.53;5.10;;;;;;;3.15;100.00;98453.06;5074484;28;20211;-62
2022/04/10 04:57:43;;;;;;;5.40;4.90;;;;;;;3.28;100.00;98459.53;5074702;28;20227;-63
2022/04/10 05:00:11;;;;;;;6.40;4.73;;;;;;;3.33;100.00;98462.00;5074696;28;20732;-62
2022/04/10 05:02:38;;;;;;;7.00;5.20;;;;;;;3.32;100.00;98455.94;5073281;28;20228;-62
2022/04/10 05:05:05;;;;;;;5.43;4.93;;;;;;;3.35;100.00;98463.66;5074852;28;20254;-61
2022/04/10 05:07:33;;;;;;;5.70;5.00;;;;;;;3.40;100.00;98463.47;5072379;28;20219;-62
2022/04/10 05:10:00;;;;;;;5.73;4.53;;;;;;;3.39;100.00;98474.84;5074726;28;20211;-63
2022/04/10 05:12:26;;;;;;;7.37;4.93;;;;;;;3.33;100.00;98478.53;5074568;28;20210;-62
2022/04/10 05:14:52;;;;;;;6.83;5.00;;;;;;;3.39;100.00;98480.94;5074558;28;20215;-61
2022/04/10 05:17:19;;;;;;;6.23;5.27;;;;;;;3.44;100.00;98492.06;5074570;28;20217;-61
2022/04/10 05:19:45;;;;;;;6.63;5.30;;;;;;;3.43;100.00;98492.13;5074684;28;20215;-61
2022/04/10 05:22:12;;;;;;;7.23;4.90;;;;;;;3.48;100.00;98488.41;5074665;28;20206;-61
2022/04/10 05:24:40;;;;;;;6.87;4.90;;;;;;;3.53;100.00;98499.56;5074145;28;20712;-62
2022/04/10 05:27:06;;;;;;;5.60;5.00;;;;;;;3.54;100.00;98503.88;5074074;28;20700;-62
2022/04/10 05:29:33;;;;;;;5.97;5.03;;;;;;;3.58;100.00;98497.66;5072779;28;20218;-62
2022/04/10 05:31:59;;;;;;;5.53;4.67;;;;;;;3.56;100.00;98504.66;5074253;28;20686;-63
2022/04/10 05:34:26;;;;;;;7.17;5.17;;;;;;;3.63;100.00;98503.56;5073884;28;20775;-63
2022/04/10 05:36:52;;;;;;;6.33;4.97;;;;;;;3.83;100.00;98508.06;5073017;28;20224;-62
2022/04/10 05:39:18;;;;;;;5.67;5.00;;;;;;;3.87;100.00;98507.91;5063265;28;20225;-63
2022/04/10 05:41:46;;;;;;;6.40;4.97;;;;;;;3.90;100.00;98513.00;5074188;28;20213;-63
2022/04/10 05:44:13;;;;;;;6.17;4.50;;;;;;;3.87;100.00;98515.75;5074012;28;20242;-63
2022/04/10 05:46:39;;;;;;;6.67;4.57;;;;;;;3.94;100.00;98519.84;5074147;28;20220;-64
2022/04/10 05:49:06;;;;;;;7.83;5.13;;;;;;;3.94;100.00;98518.97;5073995;28;20208;-62
2022/04/10 05:51:33;;;;;;;6.13;5.00;;;;;;;3.94;100.00;98529.44;5074048;28;20218;-63
2022/04/10 05:53:59;;;;;;;4.73;4.20;;;;;;;4.01;100.00;98537.00;5072222;28;20259;-62
2022/04/10 05:56:26;;;;;;;6.03;4.40;;;;;;;4.17;100.00;98527.66;5073977;28;20587;-63
2022/04/10 05:58:54;;;;;;;5.53;4.57;;;;;;;4.54;100.00;98537.59;5073924;28;20223;-63
2022/04/10 06:01:20;;;;;;;6.27;4.57;;;;;;;4.86;100.00;98530.19;5073826;28;20241;-62
2022/04/10 06:03:47;;;;;;;6.00;4.77;;;;;;;5.25;99.39;98535.56;5073816;28;20216;-62
2022/04/10 06:06:13;;;;;;;4.93;4.07;;;;;;;5.56;96.90;98530.72;5073500;28;20244;-63
2022/04/10 06:08:40;;;;;;;6.07;4.17;;;;;;;5.66;94.07;98532.00;5073570;28;20232;-63
2022/04/10 06:11:06;;;;;;;4.30;3.90;;;;;;;5.76;93.00;98541.19;5073282;28;20679;-62
2022/04/10 06:13:33;;;;;;;6.77;4.10;;;;;;;5.74;91.92;98538.63;5073568;28;20268;-62
2022/04/10 06:16:01;;;;;;;4.40;4.00;;;;;;;5.75;92.06;98545.56;5073505;28;20215;-63
2022/04/10 06:18:27;;;;;;;5.47;3.97;;;;;;;5.79;92.06;98541.91;5073410;28;20218;-63
2022/04/10 06:20:54;;;;;;;4.63;4.17;;;;;;;5.83;91.80;98547.91;5071442;28;20668;-61
2022/04/10 06:23:23;;;;;;;4.60;3.73;;;;;;;5.84;91.74;98550.47;5072818;28;20690;-61
2022/04/10 06:25:49;;;;;;;4.87;3.83;;;;;;;5.88;92.00;98551.19;5073288;28;20243;-61
2022/04/10 06:28:16;;;;;;;6.27;4.03;;;;;;;5.87;91.21;98555.56;5072917;28;20221;-62
2022/04/10 06:30:44;;;;;;;4.53;3.87;;;;;;;5.93;91.16;98550.06;5073344;28;20222;-61
2022/04/10 06:33:12;;;;;;;4.60;3.67;;;;;;;5.96;91.20;98549.94;5073351;28;20250;-61
2022/04/10 06:35:39;;;;;;;4.30;3.90;;;;;;;6.07;89.80;98555.56;5073165;28;20218;-61
2022/04/10 06:38:06;;;;;;;4.33;3.40;;;;;;;6.10;89.71;98557.19;5072889;28;20669;-61
2022/04/10 06:40:32;;;;;;;5.17;4.20;;;;;;;6.15;89.01;98555.19;5073112;28;20209;-61
2022/04/10 06:42:58;;;;;;;5.97;4.00;;;;;;;6.20;88.32;98554.09;5073184;28;20219;-61
2022/04/10 06:45:25;;;;;;;4.87;3.70;;;;;;;6.28;87.98;98556.38;5072747;28;20241;-61
2022/04/10 06:47:51;;;;;;;3.87;3.50;;;;;;;6.36;88.67;98560.31;5071604;28;20225;-60
2022/04/10 06:50:19;;;;;;;4.57;3.67;;;;;;;6.42;87.76;98560.03;5073067;28;20209;-61
2022/04/10 06:52:45;;;;;;;4.17;3.77;;;;;;;6.44;87.85;98555.59;5073124;28;20218;-61
2022/04/10 06:55:12;;;;;;;3.60;3.30;;;;;;;6.58;88.02;98565.44;5072937;28;20210;-61
2022/04/10 06:57:38;;;;;;;5.87;4.00;;;;;;;6.64;87.54;98566.03;5068206;28;20293;-61
2022/04/10 07:00:06;;;;;;;4.27;3.70;;;;;;;6.72;86.27;98569.13;5071058;28;20212;-62
2022/04/10 07:02:33;;;;;;;5.47;4.20;;;;;;;6.87;85.08;98572.81;5071809;28;20208;-63
2022/04/10 07:05:00;;;;;;;5.13;4.00;;;;;;;7.02;84.71;98570.31;5071748;28;20282;-63
2022/04/10 07:07:28;;;;;;;4.60;3.50;;;;;;;7.12;84.63;98565.44;5068224;28;20215;-60
2022/04/10 07:09:54;;;;;;;5.70;3.73;;;;;;;7.18;82.94;98573.91;5067179;28;20563;-60
2022/04/10 07:12:21;;;;;;;7.10;4.07;;;;;;;7.26;82.28;98577.00;5070104;28;20264;-61
2022/04/10 07:14:47;;;;;;;7.37;4.40;;;;;;;7.29;83.08;98571.59;5071314;28;20218;-61
2022/04/10 07:17:14;;;;;;;5.40;4.07;;;;;;;7.27;81.71;98576.06;5071906;28;20702;-61
2022/04/10 07:19:40;;;;;;;4.30;3.90;;;;;;;7.32;81.25;98576.69;5072597;28;20597;-60
2022/04/10 07:24:52;;;;;;;4.67;3.60;;;;;;;7.50;78.58;98584.53;5068762;28;20242;-63
2022/04/10 07:27:19;;;;;;;4.30;3.90;;;;;;;7.49;77.89;98569.69;5069521;28;20602;-61
2022/04/10 07:29:45;;;;;;;5.63;4.03;;;;;;;7.56;76.06;98583.38;5071464;28;20245;-60
2022/04/10 07:32:12;;;;;;;5.77;3.87;;;;;;;7.39;75.62;98578.09;5071493;28;20211;-62
2022/04/10 07:34:38;;;;;;;5.20;4.20;;;;;;;7.30;75.23;98578.56;5071351;28;20215;-61
2022/04/10 07:37:04;;;;;;;5.10;4.60;;;;;;;7.27;77.00;98583.97;5071434;28;20215;-60
2022/04/10 07:39:31;;;;;;;4.53;4.13;;;;;;;7.33;77.54;98589.78;5069551;28;20215;-61
2022/04/10 07:41:59;;;;;;;5.13;4.27;;;;;;;7.42;77.42;98593.75;5071047;28;20211;-63
2022/04/10 07:44:26;;;;;;;5.43;4.10;;;;;;;7.40;74.83;98592.94;5071160;28;20219;-62
2022/04/10 07:49:36;;;;;;;6.30;4.20;;;;;;;7.44;75.17;98595.38;5071454;28;20299;-62
2022/04/10 07:52:03;;;;;;;5.23;4.20;;;;;;;7.46;74.79;98590.00;5071193;28;20298;-61
2022/04/10 07:54:30;;;;;;;5.80;4.07;;;;;;;7.54;74.09;98598.41;5071355;28;20219;-62
2022/04/10 07:56:56;;;;;;;5.13;4.33;;;;;;;7.55;72.77;98605.34;5071166;28;20214;-61
2022/04/10 07:59:24;;;;;;;4.30;3.90;;;;;;;7.62;72.74;98604.97;5072861;28;20225;-61
2022/04/10 08:01:50;;;;;;;5.47;4.17;;;;;;;7.71;72.76;98611.56;5074268;28;20235;-61
2022/04/10 08:04:17;;;;;;;4.20;3.80;;;;;;;7.92;73.30;98610.47;5074779;28;20234;-60
2022/04/10 08:06:43;;;;;;;5.00;3.63;;;;;;;8.15;74.32;98610.13;5069656;28;20258;-62
2022/04/10 08:09:10;;;;;;;5.57;3.40;;;;;;;8.29;73.38;98605.03;5073653;28;20219;-62
2022/04/10 08:11:36;;;;;;;4.97;3.63;;;;;;;8.49;71.20;98615.34;5073834;28;20219;-61
2022/04/10 08:14:03;;;;;;;3.83;3.47;;;;;;;8.54;67.57;98615.97;5074217;28;20216;-61
2022/04/10 08:16:31;;;;;;;5.90;4.43;;;;;;;8.52;62.54;98618.66;5074589;28;20219;-61
2022/04/10 08:18:57;;;;;;;5.27;3.57;;;;;;;8.56;63.85;98616.75;5074265;28;20207;-61
2022/04/10 08:21:23;;;;;;;5.17;3.00;;;;;;;8.52;64.39;98617.84;5074225;28;20215;-61
2022/04/10 08:23:50;;;;;;;4.50;3.43;;;;;;;8.72;63.38;98622.88;5074009;28;20203;-62
2022/04/10 08:26:16;;;;;;;5.03;3.33;;;;;;;8.59;61.30;98625.34;5074204;28;20236;-61
2022/04/10 08:28:43;;;;;;;3.77;3.37;;;;;;;8.51;62.92;98622.25;5074348;28;20604;-61
2022/04/10 08:31:09;;;;;;;6.27;4.20;;;;;;;8.48;63.98;98629.47;5072664;28;20677;-62
2022/04/10 08:33:37;;;;;;;4.60;3.63;;;;;;;8.64;63.73;98622.44;5069624;28;20221;-61
2022/04/10 08:36:05;;;;;;;3.73;3.37;;;;;;;8.83;65.15;98633.69;5071930;28;20223;-61
2022/04/10 08:38:32;;;;;;;4.23;3.60;;;;;;;8.93;63.21;98624.38;5071988;28;20308;-61
2022/04/10 08:41:00;;;;;;;4.77;3.77;;;;;;;8.87;65.13;98637.88;5071525;28;20242;-61
2022/04/10 08:43:27;;;;;;;5.33;3.90;;;;;;;8.94;63.62;98631.34;5072728;28;20248;-61
2022/04/10 08:45:53;;;;;;;5.13;3.47;;;;;;;9.09;63.45;98636.63;5073653;28;20728;-61
2022/04/10 08:48:21;;;;;;;5.20;3.47;;;;;;;8.99;62.25;98635.41;5073948;28;20211;-60
2022/04/10 08:50:49;;;;;;;3.50;3.20;;;;;;;9.09;62.51;98630.47;5073602;28;20213;-61
2022/04/10 08:53:17;;;;;;;6.10;3.90;;;;;;;9.18;63.84;98635.25;5073998;28;20218;-60
2022/04/10 08:55:43;;;;;;;9.47;4.13;;;;;;;9.08;61.12;98634.06;5073823;28;20220;-60
2022/04/10 08:58:10;;;;;;;8.73;4.03;;;;;;;9.01;60.97;98643.25;5072786;28;20818;-62
2022/04/10 09:00:37;;;;;;;4.40;3.90;;;;;;;9.04;61.29;98643.06;5072776;28;20248;-62
2022/04/10 09:03:04;;;;;;;4.67;3.37;;;;;;;9.30;61.74;98642.47;5073490;28;20533;-61
2022/04/10 09:05:30;;;;;;;4.80;3.87;;;;;;;9.28;64.29;98641.69;5073586;28;20239;-60
2022/04/10 09:08:10;;;;;;;4.37;3.50;;;;;;;9.31;65.43;98638.91;5073634;28;20585;-61
2022/04/10 09:10:55;;;;;;;4.87;4.10;;;;;;;9.23;61.04;98638.50;5073470;28;20614;-62
2022/04/10 09:13:27;;;;;;;5.43;3.97;;;;;;;9.17;59.78;98641.47;5059788;28;20234;-62
2022/04/10 09:16:00;;;;;;;5.40;3.60;;;;;;;9.26;62.33;98641.81;5072077;28;20303;-61
2022/04/10 09:18:27;;;;;;;4.43;4.03;;;;;;;9.66;63.49;98632.47;5071143;28;20411;-61
2022/04/10 09:21:07;;;;;;;5.07;3.70;;;;;;;9.86;59.10;98634.81;5072330;28;20221;-61
2022/04/10 09:23:35;;;;;;;5.80;3.57;;;;;;;9.87;59.12;98632.09;5072384;28;20211;-62
2022/04/10 09:26:02;;;;;;;4.60;4.03;;;;;;;9.66;61.17;98643.03;5071794;28;20246;-61
2022/04/10 09:28:45;;;;;;;4.40;3.70;;;;;;;9.45;61.81;98639.84;5070330;28;20209;-61
2022/04/10 09:31:31;;;;;;;6.10;4.20;;;;;;;9.28;63.71;98639.06;5070182;28;20213;-60
2022/04/10 09:33:59;;;;;;;5.07;3.90;;;;;;;9.33;62.40;98645.78;5070319;28;20227;-62
2022/04/10 09:36:44;;;;;;;5.17;3.50;;;;;;;9.59;62.31;98637.25;5068054;28;20213;-61
2022/04/10 09:39:14;;;;;;;4.10;3.43;;;;;;;9.85;59.80;98633.13;5070247;28;20216;-61
2022/04/10 09:41:42;;;;;;;4.77;3.33;;;;;;;9.94;57.57;98633.41;5070325;28;20216;-61
2022/04/10 09:44:16;;;;;;;4.10;3.50;;;;;;;10.06;58.34;98626.59;5067930;28;20221;-62
2022/04/10 09:46:43;;;;;;;6.80;3.73;;;;;;;10.35;55.21;98631.81;5070377;28;20246;-62
2022/04/10 09:49:14;;;;;;;4.60;3.70;;;;;;;10.42;54.04;98619.97;5070102;28;20221;-61
2022/04/10 09:52:00;;;;;;;4.83;3.63;;;;;;;10.55;54.08;98622.69;5069811;28;20251;-61
2022/04/10 09:54:37;;;;;;;5.27;3.57;;;;;;;10.41;53.09;98627.97;5067446;28;20209;-61
2022/04/10 09:57:05;;;;;;;5.70;3.17;;;;;;;10.38;54.76;98622.84;5070486;28;20214;-61
2022/04/10 09:59:37;;;;;;;4.23;3.20;;;;;;;10.11;54.71;98621.88;5069788;28;20223;-61
2022/04/10 10:02:05;;;;;;;5.87;3.60;;;;;;;9.80;56.94;98641.28;5068639;28;20283;-62
2022/04/10 10:04:34;;;;;;;4.17;3.73;;;;;;;9.61;58.15;98634.53;5070644;28;20225;-61
2022/04/10 10:07:05;;;;;;;5.03;3.40;;;;;;;9.47;59.04;98629.16;5070464;28;20330;-61
2022/04/10 10:09:34;;;;;;;5.27;3.20;;;;;;;9.64;56.26;98635.19;5069187;28;21627;-61
2022/04/10 10:12:01;;;;;;;4.50;3.20;;;;;;;9.65;57.18;98638.66;5071719;28;20223;-61
2022/04/10 10:14:30;;;;;;;3.87;3.10;;;;;;;9.80;54.65;98640.44;5072027;28;20671;-61
2022/04/10 10:16:57;;;;;;;3.83;2.97;;;;;;;9.67;52.35;98629.72;5072171;28;20564;-61
2022/04/10 10:19:25;;;;;;;3.63;2.83;;;;;;;9.71;55.00;98630.41;5070559;28;20213;-61
2022/04/10 10:21:51;;;;;;;3.10;2.67;;;;;;;9.51;54.83;98642.13;5071671;28;20299;-61
2022/04/10 10:24:20;;;;;;;3.97;2.80;;;;;;;9.12;57.48;98651.41;5071592;28;20218;-62
2022/04/10 10:27:07;;;;;;;4.53;3.30;;;;;;;8.43;63.47;98666.59;5069044;28;20244;-62
2022/04/10 10:30:02;;;;;;;5.07;3.00;;;;;;;7.98;65.21;98668.91;5067566;28;20242;-62
2022/04/10 10:32:39;;;;;;;4.37;3.20;;;;;;;7.81;68.75;98660.16;5058974;28;20227;-61
2022/04/10 10:35:07;;;;;;;3.57;3.27;;;;;;;7.73;70.44;98662.31;5068032;28;20213;-61
2022/04/10 10:37:49;;;;;;;5.30;3.13;;;;;;;7.77;68.66;98648.91;5068711;28;20238;-61
2022/04/10 10:40:19;;;;;;;6.30;3.30;;;;;;;8.05;68.22;98654.50;5062111;28;20211;-61
2022/04/10 10:42:49;;;;;;;6.43;3.83;;;;;;;8.15;67.80;98662.78;5069314;28;20253;-61
2022/04/10 10:45:38;;;;;;;5.20;3.80;;;;;;;8.18;67.00;98657.34;5067281;28;20211;-62
2022/04/10 10:48:37;;;;;;;5.23;3.70;;;;;;;8.31;67.88;98650.56;5061426;28;20215;-61
2022/04/10 10:51:41;;;;;;;3.50;3.20;;;;;;;8.52;67.97;98658.19;5067035;28;20216;-61
2022/04/10 10:54:11;;;;;;;3.93;3.40;;;;;;;8.75;67.45;98646.44;5062642;28;20225;-61
2022/04/10 10:56:39;;;;;;;5.60;3.83;;;;;;;8.80;65.57;98644.38;5067843;28;20261;-61
2022/04/10 10:59:31;;;;;;;3.60;3.30;;;;;;;9.22;67.24;98645.53;5066945;28;20255;-61
2022/04/10 11:02:02;;;;;;;5.10;3.33;;;;;;;9.30;59.14;98639.84;5063074;28;20236;-61
2022/04/10 11:04:34;;;;;;;3.83;3.43;;;;;;;9.11;58.83;98640.00;5068360;28;20592;-61
2022/04/10 11:07:11;;;;;;;4.63;3.20;;;;;;;9.15;60.13;98636.28;5067288;28;20247;-61
2022/04/10 11:09:49;;;;;;;4.57;3.37;;;;;;;9.17;63.90;98633.56;5054018;28;20334;-61
2022/04/10 11:12:16;;;;;;;3.70;2.70;;;;;;;9.15;63.29;98632.78;5065403;28;20280;-61
2022/04/10 11:14:45;;;;;;;4.73;2.20;;;;;;;9.06;61.43;98630.66;5066471;28;20233;-61
2022/04/10 11:17:17;;;;;;;3.33;2.30;;;;;;;8.92;61.45;98633.19;5068816;28;20566;-61
2022/04/10 11:19:46;;;;;;;4.13;2.03;;;;;;;8.86;62.10;98638.78;5068855;28;20705;-62
2022/04/10 11:22:19;;;;;;;3.10;2.20;;;;;;;8.97;63.61;98633.78;5068517;28;20285;-61
2022/04/10 11:24:46;;;;;;;2.97;2.63;;;;;;;9.06;61.56;98622.75;5068654;28;20260;-62
2022/04/10 11:27:14;;;;;;;3.00;2.70;;;;;;;9.34;60.57;98628.16;5068661;28;20241;-61
2022/04/10 11:29:55;;;;;;;3.30;3.00;;;;;;;9.72;58.90;98637.41;5068781;28;20277;-61
2022/04/10 11:32:23;;;;;;;5.90;3.33;;;;;;;9.96;60.42;98625.38;5066479;28;20214;-61
2022/04/10 11:34:59;;;;;;;3.30;3.00;;;;;;;10.19;59.22;98622.28;5071436;28;20211;-61
2022/04/10 11:37:37;;;;;;;4.93;3.97;;;;;;;10.30;57.82;98615.41;5073141;28;20221;-61
2022/04/10 11:40:05;;;;;;;3.80;3.50;;;;;;;10.70;56.30;98619.13;5069904;28;20207;-61
2022/04/10 11:42:33;;;;;;;3.90;3.50;;;;;;;11.36;56.67;98613.03;5072639;28;20222;-61
2022/04/10 11:45:01;;;;;;;4.27;3.63;;;;;;;11.93;54.01;98601.28;5072909;28;20226;-61
2022/04/10 11:47:29;;;;;;;4.00;3.50;;;;;;;12.16;54.96;98605.06;5075184;28;20238;-63